This is the latest recevied weather packets stored in our database for station/object DL4ABR-6. If no packets are shown the sender has not sent any weather packets the latest 10 day(s).
| Time | Temp. | Humidity | Pressure | Rain* | Wind** | Luminosity | Snow |
|---|---|---|---|---|---|---|---|
| 1777526095 | 0° C | 94% | 1028.7 hPa | 0 mm | - | - | - |
| 1777525220 | 0° C | 93% | 1028.6 hPa | 0 mm | - | - | - |
| 1777524400 | -0.56° C | 93% | 1028.5 hPa | 0 mm | - | - | - |
| 1777523675 | -0.56° C | 93% | 1028.2 hPa | 0 mm | - | - | - |
| 1777522875 | -0.56° C | 93% | 1028.3 hPa | 0 mm | - | - | - |
| 1777522020 | -0.56° C | 93% | 1028.3 hPa | 0 mm | - | - | - |
| 1777521280 | -0.56° C | 92% | 1028.2 hPa | 0 mm | - | - | - |
| 1777520564 | -0.56° C | 92% | 1028 hPa | 0 mm | - | - | - |
| 1777519715 | -0.56° C | 92% | 1028 hPa | 0 mm | - | - | - |
| 1777518905 | 0° C | 91% | 1027.9 hPa | 0 mm | - | - | - |
| 1777518155 | 0° C | 91% | 1027.8 hPa | 0 mm | - | - | - |
| 1777517364 | 0° C | 90% | 1027.7 hPa | 0 mm | - | - | - |
| 1777516515 | 0° C | 90% | 1027.9 hPa | 0 mm | - | - | - |
| 1777515689 | 0.56° C | 89% | 1027.9 hPa | 0 mm | - | - | - |
| 1777514804 | 0.56° C | 89% | 1027.7 hPa | 0 mm | - | - | - |
| 1777514027 | 0.56° C | 88% | 1027.8 hPa | 0 mm | - | - | - |
| 1777513264 | 1.11° C | 88% | 1027.8 hPa | 0 mm | - | - | - |
| 1777511700 | 1.67° C | 87% | 1027.3 hPa | 0 mm | - | - | - |
| 1777509470 | 1.67° C | 85% | 1027.2 hPa | 0 mm | - | - | - |
| 1777507785 | 2.22° C | 84% | 1027.4 hPa | 0 mm | - | - | - |
| 1777502220 | 3.89° C | 78% | 1027.1 hPa | 0 mm | - | - | - |
| 1777498984 | 5° C | 73% | 1026.9 hPa | 0 mm | - | - | - |
| 1777496540 | 5.56° C | 70% | 1026.5 hPa | 0 mm | - | - | - |
| 1777494170 | 6.67° C | 67% | 1026.3 hPa | 0 mm | - | - | - |
| 1777489460 | 10° C | 57% | 1025.8 hPa | 0 mm | - | - | - |
* Rain since midnight (hover to see other rain measurements)
** Current wind speed in m/s (hover to see current wind gust speed)